26 de junho de 2022

Hora Código Clima Temp. Visibilidade Tecto Vento METAR/SPECI
1:30 da tarde
M
64 °F 6¼ mi+ 1.500 ft 340° 340° 5 kt METAR LFBO 261130Z AUTO 34005KT 310V020 9999 OVC015 18/15 Q1013 TEMPO 4000 -RA BKN012 FEW050CB
1:00 da tarde
M
64 °F 6¼ mi+ 1.300 ft 330° 330° 5 kt METAR LFBO 261100Z AUTO 33005KT 290V360 9999 FEW009/// BKN013/// OVC019/// ///CB 18/14 Q1013 TEMPO 4000 -RA BKN030
12:30 da tarde
M
63 °F 6¼ mi+ 1.300 ft 310° 310° 4 kt METAR LFBO 261030Z AUTO 31004KT 9999 -RA OVC013/// ///TCU 17/14 Q1014 TEMPO 4000 -RA BKN012 FEW050CB
12:00 da tarde
M
63 °F 6¼ mi+ 1.300 ft 330° 330° 4 kt METAR LFBO 261000Z AUTO 33004KT 300V010 9999 -RA OVC013/// //////TCU 17/14 Q1014 BECMG BKN030
11:30 da manhã
M
61 °F 6¼ mi+ 1.100 ft 300° 300° 6 kt METAR LFBO 260930Z AUTO 30006KT 9999 OVC011/// //////TCU 16/14 Q1014 BECMG BKN030
11:00 da manhã
M
61 °F 6¼ mi+ 1.100 ft 330° 330° 5 kt METAR LFBO 260900Z AUTO 33005KT 280V010 9999 OVC011 16/14 Q1014 NOSIG
10:30 da manhã
M
61 °F 6¼ mi+ 1.000 ft 330° 330° 6 kt METAR LFBO 260830Z AUTO 33006KT 300V360 9999 OVC010 16/14 Q1014 NOSIG
10:00 da manhã
I
61 °F 6¼ mi+ 800 ft 310° 310° 6 kt METAR LFBO 260800Z AUTO 31006KT 9999 BKN008 OVC012 16/14 Q1014 BECMG BKN012
9:30 da manhã
I
59 °F 6¼ mi+ 800 ft 310° 310° 8 kt METAR LFBO 260730Z AUTO 31008KT 9999 OVC008 15/14 Q1014 BECMG BKN012
9:00 da manhã
I
59 °F 6¼ mi+ 800 ft 320° 320° 9 kt METAR LFBO 260700Z AUTO 32009KT 9999 OVC008 15/14 Q1014 BECMG BKN012
8:30 da manhã
I
59 °F 6¼ mi+ 800 ft 310° 310° 8 kt METAR LFBO 260630Z AUTO 31008KT 9999 OVC008 15/14 Q1014 BECMG BKN012
8:00 da manhã
I
59 °F 6¼ mi+ 800 ft 320° 320° 9 kt METAR LFBO 260600Z AUTO 32009KT 9999 BKN008 OVC012 15/14 Q1014 NOSIG
7:30 da manhã
I
59 °F 6¼ mi+ 700 ft 320° 320° 9 kt METAR LFBO 260530Z AUTO 32009KT 9999 BKN007 OVC013 15/14 Q1015 NOSIG
7:00 da manhã
I
59 °F 6¼ mi+ 700 ft 310° 310° 9 kt METAR LFBO 260500Z AUTO 31009KT 9999 OVC007 15/14 Q1014 NOSIG
6:30 da manhã
I
61 °F 6¼ mi+ 900 ft 310° 310° 8 kt METAR LFBO 260430Z AUTO 31008KT 9999 OVC009 16/15 Q1014 NOSIG
6:00 da manhã
I
61 °F 6¼ mi+ 800 ft 320° 320° 8 kt METAR LFBO 260400Z AUTO 32008KT 9999 BKN008 OVC036 16/15 Q1014 NOSIG
5:30 da manhã
I
61 °F 6¼ mi+ 700 ft 320° 320° 10 kt METAR LFBO 260330Z AUTO 32010KT 9999 BKN007 BKN013 BKN036 16/15 Q1014 NOSIG
5:00 da manhã
M
61 °F 3¾ mi 1.300 ft 320° 320° 9 kt METAR LFBO 260300Z AUTO 32009KT 6000 -RADZ SCT009 BKN013 BKN027 16/15 Q1014 TEMPO BKN008
4:30 da manhã
M
61 °F 6¼ mi+ 1.000 ft 310° 310° 9 kt METAR LFBO 260230Z AUTO 31009KT 9999 BKN010 BKN014 OVC029 16/15 Q1014 NOSIG
4:00 da manhã
M
61 °F 6¼ mi+ 2.100 ft 310° 310° 8 kt METAR LFBO 260200Z AUTO 31008KT 9999 FEW009 BKN021 OVC028 16/15 Q1014 TEMPO BKN008
3:30 da manhã
M
61 °F 6¼ mi+ 1.900 ft 310° 310° 8 kt METAR LFBO 260130Z AUTO 31008KT 9999 OVC019/// ///TCU 16/15 Q1014 TEMPO BKN008
3:00 da manhã
M
61 °F 6¼ mi+ 1.300 ft 310° 310° 10 kt METAR LFBO 260100Z AUTO 31010KT 9999 OVC013 16/15 Q1014 TEMPO 4000 RA BKN008 FEW050CB
2:30 da manhã
M
61 °F 6¼ mi+ 1.600 ft 300° 300° 7 kt METAR LFBO 260030Z AUTO 30007KT 9999 -RA SCT011/// BKN016/// BKN035/// //////TCU 16/15 Q1014 TEMPO 4000 RA BKN008 FEW050CB
2:00 da manhã
M
63 °F 6¼ mi+ 1.700 ft 310° 310° 9 kt METAR LFBO 260000Z AUTO 31009KT 9999 FEW010/// BKN017/// BKN031/// ///CB 17/15 Q1014 TEMPO 4000 RA BKN008 FEW050CB
1:30 da manhã
M
63 °F 6¼ mi+ 2.900 ft 280° 280° 7 kt METAR LFBO 252330Z AUTO 28007KT 9999 SCT017/// BKN029/// OVC043/// ///CB 17/15 Q1015 TEMPO 4000 RA BKN008 FEW050CB
1:00 da manhã
V
63 °F 6¼ mi+ 4.200 ft 280° 280° 5 kt METAR LFBO 252300Z AUTO 28005KT 9999 SCT029/// BKN042/// BKN058/// ///TCU 17/16 Q1015 TEMPO 4000 RA BKN012 BKN030 FEW050CB
12:30 da manhã
V
63 °F 6¼ mi+ 4.200 ft 310° 310° 5 kt METAR LFBO 252230Z AUTO 31005KT 280V340 9999 BKN042 BKN130 OVC170 17/16 Q1014 TEMPO 4000 RA BKN012 BKN030 FEW050CB
12:00 da manhã
V
63 °F 6¼ mi+ 12.000 ft 330° 330° 6 kt METAR LFBO 252200Z AUTO 33006KT 300V020 9999 -RA FEW046/// SCT082/// BKN120/// ///CB 17/15 Q1014 TEMPO 4000 RA BKN012 BKN030 FEW050CB

25 de junho de 2022

Hora Código Clima Temp. Visibilidade Tecto Vento METAR/SPECI
11:30 da tarde
M
63 °F 3⅛ mi - 310° 310° 8 kt METAR LFBO 252130Z AUTO 31008KT 5000 RA BR //////CB 17/16 Q1015 TEMPO BKN012 BKN030 FEW050CB
11:00 da tarde
V
64 °F 6¼ mi+ - 310° 310° 9 kt METAR LFBO 252100Z AUTO 31009KT 9999 //////TCU 18/15 Q1015 TEMPO 4000 RA BKN012 BKN030 FEW050CB
10:30 da tarde
V
66 °F 6¼ mi+ 5.400 ft 330° 330° 11 kt METAR LFBO 252030Z AUTO 33011KT 9999 FEW016/// OVC054/// //////CB 19/15 Q1014 TEMPO 4000 RA BKN012 BKN030 FEW050CB
10:00 da tarde
V
66 °F 6¼ mi+ 5.600 ft 310° 310° 12 kt METAR LFBO 252000Z AUTO 31012KT 9999 -RA FEW018/// OVC056/// //////CB 19/15 Q1014 TEMPO 4000 RA FEW025 SCT040 OVC070
9:30 da tarde
V
68 °F 6¼ mi+ - 330° 330° 12 kt METAR LFBO 251930Z AUTO 33012KT CAVOK 20/15 Q1014 TEMPO 4000 RA BKN012 BKN030 FEW050CB
9:00 da tarde
V
68 °F 6¼ mi+ 5.600 ft 330° 330° 12 kt METAR LFBO 251900Z AUTO 33012KT 9999 FEW022 OVC056 20/15 Q1013 NOSIG
8:30 da tarde
V
68 °F 6¼ mi+ 5.200 ft 340° 340° 11 kt METAR LFBO 251830Z AUTO 34011KT 9999 FEW022 OVC052 20/15 Q1013 NOSIG
8:00 da tarde
V
70 °F 6¼ mi+ 4.900 ft 320° 320° 13 kt METAR LFBO 251800Z AUTO 32013KT 9999 FEW024 OVC049 21/15 Q1013 NOSIG
7:30 da tarde
V
72 °F 6¼ mi+ 4.800 ft 320° 320° 15 kt METAR LFBO 251730Z AUTO 32015KT 9999 SCT028 BKN048 BKN060 22/15 Q1012 TEMPO 32020G30KT 4000 TSRA FEW050CB BKN110
7:00 da tarde
V
72 °F 6¼ mi+ 5.600 ft 320° 320° 14 kt METAR LFBO 251700Z AUTO 32014KT 9999 FEW030 BKN056 BKN160 22/15 Q1012 TEMPO 32020G30KT 4000 TSRA BECMG FEW050CB BKN110
6:30 da tarde
V
73 °F 6¼ mi+ 6.000 ft 330° 330° 14 kt METAR LFBO 251630Z AUTO 33014KT 9999 FEW031 BKN060 BKN140 23/15 Q1012 TEMPO 32020G30KT 4000 TSRA BECMG FEW050CB BKN110
6:00 da tarde
V
75 °F 6¼ mi+ 4.700 ft 310° 310° 14 kt METAR LFBO 251600Z AUTO 31014KT 9999 FEW030 BKN047 BKN060 24/15 Q1012 TEMPO 32020G30KT 4000 TSRA BECMG FEW050CB BKN110
5:30 da tarde
V
75 °F 6¼ mi+ 4.600 ft 310° 310° 15 kt METAR LFBO 251530Z AUTO 31015KT 280V350 9999 FEW030 BKN046 BKN056 24/15 Q1012 TEMPO 32020G30KT 4000 TSRA BECMG FEW050CB BKN110
5:00 da tarde
V
73 °F 6¼ mi+ 3.900 ft 300° 300° 15 kt METAR LFBO 251500Z AUTO 30015KT 9999 BKN039 OVC046 23/15 Q1012 TEMPO 32020G30KT 4000 TSRA BECMG FEW050CB BKN110
4:30 da tarde
V
75 °F 6¼ mi+ 4.000 ft 300° 300° 14 kt METAR LFBO 251430Z AUTO 30014KT 9999 BKN040 OVC047 24/15 Q1012 TEMPO 32020G30KT 4000 TSRA BECMG FEW050CB BKN110
4:00 da tarde
V
77 °F 6¼ mi+ 4.100 ft 280° 280° 14 kt METAR LFBO 251400Z AUTO 28014KT 9999 BKN041 BKN049 BKN062 25/15 Q1011 TEMPO 32020G30KT 4000 TSRA BECMG FEW050CB BKN110
3:30 da tarde
V
77 °F 6¼ mi+ 4.400 ft 290° 290° 14 kt METAR LFBO 251330Z AUTO 29014KT 9999 BKN044 OVC058 25/15 Q1011 TEMPO 32020G30KT 4000 TSRA BECMG FEW050CB BKN110
3:00 da tarde
V
79 °F 6¼ mi+ 3.700 ft 280° 280° 10 kt METAR LFBO 251300Z AUTO 28010KT 9999 BKN037 BKN044 BKN050 26/16 Q1011 TEMPO 32020G30KT 4000 TSRA BECMG FEW050CB BKN110
2:30 da tarde
V
77 °F 6¼ mi+ 4.900 ft 320° 320° 11 kt METAR LFBO 251230Z AUTO 32011KT 290V350 9999 FEW034 BKN049 25/16 Q1011 TEMPO 32020G30KT 4000 TSRA BECMG FEW050CB BKN110
2:00 da tarde
V
77 °F 6¼ mi+ 18.000 ft 290° 290° 10 kt METAR LFBO 251200Z AUTO 29010KT 9999 FEW048 BKN180 25/16 Q1011 TEMPO 32020G30KT 4000 TSRA BECMG FEW050CB BKN110
1:30 da tarde
V
77 °F 6¼ mi+ - 290° 290° 15 kt METAR LFBO 251130Z AUTO 29015KT CAVOK 25/17 Q1011 TEMPO 14012KT BECMG SCT065TCU
1:00 da tarde
V
81 °F 6¼ mi+ - 270° 270° 12 kt METAR LFBO 251100Z AUTO 27012KT 9999 FEW049 SCT160 27/16 Q1011 BECMG 14012KT
12:30 da tarde
V
81 °F 6¼ mi+ 21.000 ft 170° 170° 9 kt METAR LFBO 251030Z AUTO 17009KT 130V220 9999 FEW008 BKN210 27/15 Q1011 NOSIG
12:00 da tarde
V
81 °F 6¼ mi+ - 140° 140° 13 kt METAR LFBO 251000Z AUTO 14013KT CAVOK 27/14 Q1010 NOSIG
11:30 da manhã
V
81 °F 6¼ mi+ - 140° 140° 16 kt METAR LFBO 250930Z AUTO 14016KT CAVOK 27/14 Q1010 NOSIG
11:00 da manhã
V
81 °F 6¼ mi+ - 130° 130° 13 kt METAR LFBO 250900Z AUTO 13013KT CAVOK 27/14 Q1009 NOSIG
10:30 da manhã
V
79 °F 6¼ mi+ - 130° 130° 16 kt METAR LFBO 250830Z AUTO 13016KT CAVOK 26/14 Q1010 NOSIG
10:00 da manhã
V
77 °F 6¼ mi+ - 130° 130° 11 kt METAR LFBO 250800Z AUTO 13011KT 100V160 CAVOK 25/14 Q1010 NOSIG
9:30 da manhã
V
73 °F 6¼ mi+ - 140° 140° 9 kt METAR LFBO 250730Z AUTO 14009KT 100V160 CAVOK 23/14 Q1010 NOSIG
9:00 da manhã
V
70 °F 6¼ mi+ - 130° 130° 9 kt METAR LFBO 250700Z AUTO 13009KT CAVOK 21/14 Q1011 NOSIG
8:30 da manhã
V
68 °F 6¼ mi+ - 120° 120° 8 kt METAR LFBO 250630Z AUTO 12008KT CAVOK 20/14 Q1011 NOSIG
8:00 da manhã
V
66 °F 6¼ mi+ - 120° 120° 6 kt METAR LFBO 250600Z AUTO 12006KT 090V150 CAVOK 19/15 Q1011 NOSIG
7:30 da manhã
V
64 °F 6¼ mi+ - 150° 150° 5 kt METAR LFBO 250530Z AUTO 15005KT CAVOK 18/15 Q1011 NOSIG
7:00 da manhã
V
63 °F 6¼ mi+ - 150° 150° 4 kt METAR LFBO 250500Z AUTO 15004KT CAVOK 17/15 Q1011 TEMPO RA BKN012 BKN025
6:30 da manhã
V
63 °F 6¼ mi+ - Var Var 3 kt METAR LFBO 250430Z AUTO VRB03KT CAVOK 17/15 Q1011 TEMPO RA BKN012 BKN025
6:00 da manhã
V
63 °F 6¼ mi+ - 160° 160° 3 kt METAR LFBO 250400Z AUTO 16003KT CAVOK 17/15 Q1011 TEMPO RA BKN012 BKN025
5:30 da manhã
V
63 °F 6¼ mi+ - Var Var 2 kt METAR LFBO 250330Z AUTO VRB02KT CAVOK 17/15 Q1012 TEMPO RA BKN012 BKN025
5:00 da manhã
V
63 °F 6¼ mi+ - 140° 140° 4 kt METAR LFBO 250300Z AUTO 14004KT CAVOK 17/15 Q1012 TEMPO RA BKN012 BKN025
4:30 da manhã
V
64 °F 6¼ mi+ - 140° 140° 2 kt METAR LFBO 250230Z AUTO 14002KT CAVOK 18/15 Q1012 TEMPO RA BKN012 BKN025
4:00 da manhã
V
64 °F 6¼ mi+ - 120° 120° 3 kt METAR LFBO 250200Z AUTO 12003KT CAVOK 18/14 Q1013 TEMPO RA BKN012 BKN025
3:30 da manhã
V
66 °F 6¼ mi+ - 100° 100° 3 kt METAR LFBO 250130Z AUTO 10003KT 070V140 CAVOK 19/14 Q1013 TEMPO RA BKN012 BKN025
3:00 da manhã
V
68 °F 6¼ mi+ - 090° 090° 3 kt METAR LFBO 250100Z AUTO 09003KT CAVOK 20/14 Q1013 TEMPO RA BKN012 BKN025
2:30 da manhã
V
68 °F 6¼ mi+ - 090° 090° 3 kt METAR LFBO 250030Z AUTO 09003KT CAVOK 20/14 Q1013 TEMPO RA BKN012 BKN025
2:00 da manhã
V
68 °F 6¼ mi+ - 100° 100° 3 kt METAR LFBO 250000Z AUTO 10003KT CAVOK 20/14 Q1014 TEMPO RA BKN012 BKN025
1:30 da manhã
V
68 °F 6¼ mi+ - Var Var 2 kt METAR LFBO 242330Z AUTO VRB02KT CAVOK 20/14 Q1014 TEMPO RA BKN012 BKN025
1:00 da manhã
V
68 °F 6¼ mi+ - Var Var 3 kt METAR LFBO 242300Z AUTO VRB03KT CAVOK 20/14 Q1014 NOSIG
12:30 da manhã
V
70 °F 6¼ mi+ - 050° 050° 3 kt METAR LFBO 242230Z AUTO 05003KT CAVOK 21/14 Q1014 NOSIG
12:00 da manhã
V
72 °F 6¼ mi+ - 060° 060° 4 kt METAR LFBO 242200Z AUTO 06004KT CAVOK 22/14 Q1014 NOSIG

24 de junho de 2022

Hora Código Clima Temp. Visibilidade Tecto Vento METAR/SPECI
11:30 da tarde
V
72 °F 6¼ mi+ - 070° 070° 4 kt METAR LFBO 242130Z AUTO 07004KT 040V100 CAVOK 22/14 Q1014 NOSIG
11:00 da tarde
V
72 °F 6¼ mi+ - 050° 050° 3 kt METAR LFBO 242100Z AUTO 05003KT 020V080 CAVOK 22/14 Q1014 NOSIG
10:30 da tarde
V
73 °F 6¼ mi+ - 040° 040° 4 kt METAR LFBO 242030Z AUTO 04004KT 010V070 CAVOK 23/14 Q1014 NOSIG
10:00 da tarde
V
73 °F 6¼ mi+ - 360° 360° 5 kt METAR LFBO 242000Z AUTO 36005KT CAVOK 23/14 Q1014 NOSIG
9:30 da tarde
V
73 °F 6¼ mi+ - 360° 360° 6 kt METAR LFBO 241930Z AUTO 36006KT CAVOK 23/14 Q1014 NOSIG
9:00 da tarde
V
75 °F 6¼ mi+ - 360° 360° 4 kt METAR LFBO 241900Z AUTO 36004KT 320V030 CAVOK 24/13 Q1014 NOSIG
8:30 da tarde
V
75 °F 6¼ mi+ - 350° 350° 7 kt METAR LFBO 241830Z AUTO 35007KT 300V030 CAVOK 24/13 Q1013 NOSIG
8:00 da tarde
V
77 °F 6¼ mi+ - 350° 350° 6 kt METAR LFBO 241800Z AUTO 35006KT 320V030 CAVOK 25/13 Q1013 NOSIG
7:30 da tarde
V
79 °F 6¼ mi+ - 330° 330° 7 kt METAR LFBO 241730Z AUTO 33007KT 280V020 CAVOK 26/13 Q1013 NOSIG
7:00 da tarde
V
77 °F 6¼ mi+ - 350° 350° 5 kt METAR LFBO 241700Z AUTO 35005KT 300V040 CAVOK 25/13 Q1013 NOSIG
6:30 da tarde
V
77 °F 6¼ mi+ - 340° 340° 6 kt METAR LFBO 241630Z AUTO 34006KT 280V050 CAVOK 25/13 Q1013 NOSIG
6:00 da tarde
V
77 °F 6¼ mi+ - 310° 310° 9 kt METAR LFBO 241600Z AUTO 31009KT 280V350 CAVOK 25/13 Q1013 NOSIG
5:30 da tarde
V
77 °F 6¼ mi+ - 290° 290° 4 kt METAR LFBO 241530Z AUTO 29004KT 230V320 CAVOK 25/13 Q1013 NOSIG
5:00 da tarde
V
77 °F 6¼ mi+ - 350° 350° 5 kt METAR LFBO 241500Z AUTO 35005KT 310V050 CAVOK 25/13 Q1014 NOSIG
4:30 da tarde
V
79 °F 6¼ mi+ 6.000 ft 300° 300° 7 kt METAR LFBO 241430Z AUTO 30007KT 240V010 9999 SCT049 BKN060 26/14 Q1014 NOSIG
4:00 da tarde
V
79 °F 6¼ mi+ - 280° 280° 7 kt METAR LFBO 241400Z AUTO 28007KT 210V340 9999 SCT047 SCT054 26/14 Q1014 NOSIG
3:30 da tarde
V
75 °F 6¼ mi+ 6.000 ft 250° 250° 6 kt METAR LFBO 241330Z AUTO 25006KT 180V340 9999 FEW041 SCT047 BKN060 24/14 Q1014 NOSIG
3:00 da tarde
V
75 °F 6¼ mi+ - 250° 250° 8 kt METAR LFBO 241300Z AUTO 25008KT 210V290 9999 FEW041 SCT058 24/14 Q1014 NOSIG
2:30 da tarde
V
77 °F 6¼ mi+ 6.600 ft 250° 250° 7 kt METAR LFBO 241230Z AUTO 25007KT 200V290 9999 SCT040 SCT050 BKN066 25/15 Q1014 NOSIG
2:00 da tarde
V
73 °F 6¼ mi+ - 270° 270° 6 kt METAR LFBO 241200Z AUTO 27006KT 220V320 9999 FEW030 SCT036 23/15 Q1015 NOSIG
Dados mais antigos

Baixe nosso aplicativo

Fácil acesso a todas as condições meteorológicas da aviação no seu celular e no seu tablet.
Com muitas características não disponíveis no site, como suporte offline e uma lista pessoal de aeroportos.

Nós e terceiros acompanhamos seu comportamento na internet em nosso site com cookies. Se você continuar, nós assumimos que você concorda com nossa política de cookies. Saiba mais